Weather reports worldwide

Advertisment
Ayamonte, Spain (8381): temperature & dewpoint: 10.09.2019 17:00:00 - 16.09.2019 17:00:00 (CEST)Ayamonte, Spain (8381): wind speed & gusts: 10.09.2019 17:00:00 - 16.09.2019 17:00:00 (CEST)Ayamonte, Spain (8381): wind direction: 10.09.2019 17:00:00 - 16.09.2019 17:00:00 (CEST)Ayamonte, Spain (8381): reduced air pressure: 10.09.2019 17:00:00 - 16.09.2019 17:00:00 (CEST)Ayamonte, Spain (8381): precipitation: 10.09.2019 17:00:00 - 16.09.2019 17:00:00 (CEST)
Date & Time tt [°C] td [°C] ff [km/h] ff [kn] fx [km/h] fx [kn] dd ppp [hPa] rr [mm]
16.09.2019 17:00:00 - - - - - - - - -
16.09.2019 16:00:00 26,0 17,9 11 6 18 10 S 1016,7 0,0
16.09.2019 15:00:00 27,4 17,9 10 5 21 11 S 1017,1 0,0
16.09.2019 14:00:00 27,5 17,6 9 5 20 11 ESE 1017,5 -
16.09.2019 13:00:00 27,5 17,4 6 4 18 10 ESE 1018,0 0,0
16.09.2019 12:00:00 26,6 15,6 4 2 11 6 E 1018,3 0,0
16.09.2019 11:00:00 25,3 15,1 5 3 9 5 ESE 1018,3 0,0
16.09.2019 10:00:00 22,5 14,9 4 2 11 6 N 1017,6 0,0
16.09.2019 09:00:00 19,5 15,0 1 1 6 4 NE 1017,3 0,0
16.09.2019 08:00:00 18,7 14,4 1 0 7 4 NE 1017,0 -
16.09.2019 07:00:00 19,2 15,1 2 1 8 4 ENE 1016,7 0,0
16.09.2019 06:00:00 19,7 15,3 4 2 5 3 ENE 1016,7 0,0
16.09.2019 05:00:00 20,1 15,7 3 2 8 4 ENE 1016,6 0,0
16.09.2019 04:00:00 20,4 15,8 2 1 6 4 ENE 1016,9 0,0
16.09.2019 03:00:00 21,0 16,6 0 0 7 4 NE 1017,1 0,0
16.09.2019 02:00:00 21,4 19,0 4 2 8 4 WNW 1017,1 -
16.09.2019 01:00:00 21,6 19,0 0 0 8 4 N 1017,3 0,0
16.09.2019 00:00:00 22,4 19,8 4 2 11 6 W 1017,2 0,0
15.09.2019 23:00:00 22,9 20,3 5 3 18 10 W 1017,2 0,0
15.09.2019 22:00:00 23,3 20,7 10 5 20 11 WSW 1016,7 0,0
15.09.2019 21:00:00 23,4 20,3 12 7 22 12 WSW 1016,3 0,0
15.09.2019 20:00:00 24,4 19,5 12 7 24 13 SW 1016,3 -
15.09.2019 19:00:00 25,6 17,8 13 7 26 14 SW 1016,3 0,0
15.09.2019 18:00:00 27,3 18,6 15 8 26 14 WSW 1016,3 0,0
15.09.2019 17:00:00 26,5 19,3 18 10 29 16 SW 1016,6 0,0
15.09.2019 16:00:00 27,0 20,6 16 9 27 14 SW 1017,1 0,0
15.09.2019 15:00:00 26,6 20,2 15 8 24 13 SSW 1017,4 0,0
15.09.2019 14:00:00 26,8 19,4 13 7 20 11 SSW 1017,8 -
15.09.2019 13:00:00 27,3 19,3 9 5 17 9 SW 1018,3 0,0
15.09.2019 12:00:00 26,9 19,0 8 4 13 7 SW 1018,0 0,0
15.09.2019 11:00:00 26,1 18,0 0 0 6 3 ENE 1017,8 0,0
15.09.2019 10:00:00 23,1 17,1 0 0 4 2 ENE 1017,4 0,0
15.09.2019 09:00:00 19,5 16,6 0 0 6 3 N 1017,2 0,0
15.09.2019 08:00:00 18,8 16,0 2 1 9 5 N 1016,8 -
15.09.2019 07:00:00 19,2 16,2 1 0 5 3 N 1016,8 0,0
15.09.2019 06:00:00 20,1 16,3 2 1 7 4 ESE 1016,4 0,0
15.09.2019 05:00:00 20,4 16,4 3 2 8 5 NNW 1016,5 0,0
15.09.2019 04:00:00 20,2 16,5 5 3 9 5 NNW 1016,7 0,0
15.09.2019 03:00:00 20,7 16,7 1 0 6 3 NE 1017,1 0,0
15.09.2019 02:00:00 21,0 17,2 0 0 5 3 NE 1017,1 -
15.09.2019 01:00:00 21,4 17,4 0 0 6 4 N 1017,5 0,0
15.09.2019 00:00:00 22,2 16,9 0 0 7 4 N 1017,5 0,0
14.09.2019 23:00:00 23,4 16,2 0 0 5 3 N 1017,5 0,0
14.09.2019 22:00:00 24,5 16,7 2 1 9 5 W 1017,0 0,0
14.09.2019 21:00:00 24,9 17,1 4 2 8 4 W 1016,2 0,0
14.09.2019 20:00:00 25,8 17,7 4 2 11 6 SSW 1015,9 -
14.09.2019 19:00:00 27,3 16,9 5 3 13 7 SSW 1015,6 0,0
14.09.2019 18:00:00 28,5 17,4 4 2 11 6 SW 1015,7 0,0
14.09.2019 17:00:00 27,2 18,5 5 3 15 8 SW 1015,8 0,0
14.09.2019 16:00:00 24,7 18,2 10 5 16 8 E 1016,2 0,0
14.09.2019 15:00:00 23,7 18,2 7 4 24 13 SE 1017,0 0,0
14.09.2019 14:00:00 25,2 16,9 10 6 26 14 SSE 1017,1 -
14.09.2019 13:00:00 27,5 17,1 12 6 22 12 S 1017,4 0,0
14.09.2019 12:00:00 26,2 16,1 9 5 20 11 SE 1017,6 0,0
14.09.2019 11:00:00 26,1 15,8 9 5 16 9 E 1017,6 0,0
14.09.2019 10:00:00 23,1 14,6 3 2 10 5 N 1017,4 0,0
14.09.2019 09:00:00 20,1 14,0 3 2 15 8 NNE 1017,1 0,0
14.09.2019 08:00:00 19,6 13,8 7 4 19 10 NNW 1016,9 -
14.09.2019 07:00:00 19,6 14,2 6 3 13 7 NNW 1016,6 0,0
14.09.2019 06:00:00 19,8 14,1 6 3 13 7 N 1016,6 0,0
14.09.2019 05:00:00 18,2 14,1 4 2 10 5 N 1016,9 0,0
14.09.2019 04:00:00 18,5 14,1 2 1 5 3 N 1017,2 0,0
14.09.2019 03:00:00 18,7 13,8 1 1 5 3 NNE 1017,9 0,0
14.09.2019 02:00:00 19,2 14,0 2 1 6 4 NE 1018,2 -
14.09.2019 01:00:00 20,2 14,1 0 0 8 4 NNE 1018,5 0,0
14.09.2019 00:00:00 21,7 14,6 5 3 17 9 E 1018,3 0,0
13.09.2019 23:00:00 21,6 15,7 3 1 4 2 ENE 1018,0 0,0
13.09.2019 22:00:00 22,7 15,1 0 0 8 4 SSE 1017,7 0,0
13.09.2019 21:00:00 24,7 15,1 3 2 9 5 SSW 1017,3 0,0
13.09.2019 20:00:00 26,1 14,9 3 1 6 3 NW 1017,0 -
13.09.2019 19:00:00 26,1 15,2 1 0 18 10 N 1017,1 0,0
13.09.2019 18:00:00 27,9 16,5 11 6 22 12 SW 1016,4 0,0
13.09.2019 17:00:00 27,8 16,1 14 7 22 12 SW 1016,5 0,0
13.09.2019 16:00:00 28,8 15,7 9 5 19 11 SSW 1016,8 0,0
13.09.2019 15:00:00 28,5 14,7 7 4 27 15 SSE 1017,1 0,0
13.09.2019 14:00:00 27,8 15,1 12 7 32 18 SE 1017,5 -
13.09.2019 13:00:00 27,9 13,8 18 10 38 20 E 1017,9 0,0
13.09.2019 12:00:00 27,3 14,3 13 7 31 17 E 1018,3 0,0
13.09.2019 11:00:00 26,1 14,2 10 5 21 12 ENE 1017,7 0,0
13.09.2019 10:00:00 23,7 15,0 3 1 10 6 NNW 1018,0 0,0
13.09.2019 09:00:00 20,5 14,6 3 2 10 6 ENE 1018,5 0,0
13.09.2019 08:00:00 19,8 14,6 2 1 11 6 NNE 1018,2 -
13.09.2019 07:00:00 19,2 14,6 2 1 8 5 N 1017,9 0,0
13.09.2019 06:00:00 20,4 15,4 3 1 12 7 NNE 1018,0 0,0
13.09.2019 05:00:00 20,1 15,3 3 2 10 6 NE 1018,7 0,0
13.09.2019 04:00:00 19,6 15,3 4 2 7 4 ENE 1019,2 0,0
13.09.2019 03:00:00 19,7 14,7 3 1 8 4 ENE 1019,1 0,0
13.09.2019 02:00:00 19,9 15,3 1 1 9 5 NE 1019,4 -
13.09.2019 01:00:00 20,2 15,0 1 1 6 3 NNW 1019,9 0,0
13.09.2019 00:00:00 20,6 14,7 3 2 8 5 SSE 1020,2 0,0
12.09.2019 23:00:00 21,0 14,6 0 0 4 2 NE 1020,0 0,0
12.09.2019 22:00:00 22,5 14,3 1 1 8 5 S 1019,8 0,0
12.09.2019 21:00:00 23,5 14,5 4 2 11 6 WSW 1019,4 0,0
12.09.2019 20:00:00 24,9 15,3 7 4 15 8 WSW 1019,4 -
12.09.2019 19:00:00 26,8 15,2 8 4 17 9 SW 1019,1 0,0
12.09.2019 18:00:00 27,1 14,5 8 5 16 9 SSW 1018,8 0,0
12.09.2019 17:00:00 27,7 14,7 9 5 19 10 SW 1019,1 0,0
12.09.2019 16:00:00 27,5 14,8 9 5 24 13 SSW 1019,3 0,0
12.09.2019 15:00:00 28,0 14,2 13 7 28 15 S 1019,6 0,0
12.09.2019 14:00:00 28,3 14,1 13 7 35 19 ESE 1019,8 -
12.09.2019 13:00:00 28,6 13,3 16 8 31 17 E 1020,0 0,0
12.09.2019 12:00:00 27,6 12,7 14 8 33 18 E 1020,3 0,0
12.09.2019 11:00:00 26,7 12,3 12 6 27 15 E 1020,2 0,0
12.09.2019 10:00:00 23,9 11,2 6 3 16 8 ENE 1020,0 0,0
12.09.2019 09:00:00 17,5 10,4 1 1 5 3 NNW 1020,0 0,0
12.09.2019 08:00:00 17,5 9,7 1 1 9 5 NNE 1020,1 -
12.09.2019 07:00:00 20,1 9,9 6 3 19 10 ENE 1019,3 0,0
12.09.2019 06:00:00 20,7 10,8 11 6 20 11 ENE 1019,1 0,0
12.09.2019 05:00:00 19,9 12,4 6 3 14 8 ENE 1018,8 0,0
12.09.2019 04:00:00 20,5 13,0 5 3 14 8 ENE 1018,7 0,0
12.09.2019 03:00:00 19,7 12,7 4 2 10 5 ENE 1018,6 0,0
12.09.2019 02:00:00 19,2 12,6 2 1 9 5 ENE 1018,2 -
12.09.2019 01:00:00 19,6 15,3 5 3 8 4 E 1018,1 0,0
12.09.2019 00:00:00 20,4 15,4 3 2 12 6 ENE 1018,1 0,0
11.09.2019 23:00:00 21,0 16,0 4 2 10 5 NW 1018,1 0,0
11.09.2019 22:00:00 22,4 15,3 6 3 19 11 W 1017,6 0,0
11.09.2019 21:00:00 22,9 14,7 10 6 30 16 WSW 1017,0 0,0
11.09.2019 20:00:00 24,0 13,3 16 9 39 21 WSW 1016,5 -
11.09.2019 19:00:00 25,1 13,4 21 12 37 20 SW 1016,5 0,0
11.09.2019 18:00:00 27,5 12,3 18 10 32 17 WSW 1016,6 0,0
11.09.2019 17:00:00 27,9 13,1 17 9 29 16 WSW 1016,9 0,0
11.09.2019 16:00:00 27,4 13,0 14 8 22 12 SSW 1017,4 0,0
11.09.2019 15:00:00 27,0 11,4 12 6 23 13 SSW 1017,9 0,0
11.09.2019 14:00:00 27,0 11,4 14 8 23 12 SW 1018,5 -
11.09.2019 13:00:00 27,5 9,8 9 5 23 13 E 1019,0 0,0
11.09.2019 12:00:00 25,6 9,4 4 2 16 9 ENE 1019,6 0,0
11.09.2019 11:00:00 23,0 10,4 6 4 17 9 NNW 1019,6 0,0
11.09.2019 10:00:00 19,6 9,4 11 6 21 11 NNW 1019,4 0,0
11.09.2019 09:00:00 17,9 9,0 4 2 23 12 N 1018,7 0,0
11.09.2019 08:00:00 17,7 8,5 12 6 24 13 NNW 1018,0 -
11.09.2019 07:00:00 17,8 8,7 10 5 28 15 N 1017,1 0,0
11.09.2019 06:00:00 18,3 8,8 11 6 26 14 NNW 1016,7 0,0
11.09.2019 05:00:00 18,7 9,2 11 6 31 17 NNW 1016,9 0,0
11.09.2019 04:00:00 19,2 9,7 12 6 27 14 NNW 1017,2 0,0
11.09.2019 03:00:00 19,6 9,4 13 7 27 15 NNW 1017,4 0,0
11.09.2019 02:00:00 20,5 10,0 10 5 29 16 NNW 1017,4 -
11.09.2019 01:00:00 21,3 9,8 15 8 35 19 NNW 1017,8 0,0
11.09.2019 00:00:00 22,1 9,9 13 7 29 16 NNW 1017,4 0,0
10.09.2019 23:00:00 23,5 8,8 10 6 32 17 NNW 1017,1 0,0
10.09.2019 22:00:00 23,3 5,1 6 3 15 8 NW 1016,3 0,0
10.09.2019 21:00:00 26,2 5,8 4 2 23 12 N 1015,2 0,0
10.09.2019 20:00:00 27,6 6,4 6 3 27 15 N 1014,8 -
10.09.2019 19:00:00 28,8 7,4 8 4 30 16 N 1014,5 0,0
10.09.2019 18:00:00 28,6 9,3 14 8 34 19 NNW 1014,7 0,0
10.09.2019 17:00:00 28,5 10,6 11 6 29 16 NNW 1015,2 0,0

tt = temperature
td = dewpoint
ff = wind speed
fx = gusts
dd = wind direction
ppp = reduced air pressure
rr = precipitation

Next stations